createdAt,value
2023-02-12T00:04:38.467Z,13.30
2023-02-12T00:09:40.171Z,14.23
2023-02-12T00:14:42.578Z,12.13
2023-02-12T00:19:44.268Z,11.73
2023-02-12T00:24:45.883Z,12.45
2023-02-12T00:29:47.529Z,12.85
2023-02-12T00:34:49.498Z,12.50
2023-02-12T00:39:51.130Z,12.05
2023-02-12T00:44:52.695Z,12.27
2023-02-12T00:49:54.270Z,14.23
2023-02-12T00:54:55.881Z,12.85
2023-02-12T00:59:57.454Z,13.20
2023-02-12T01:04:59.126Z,12.32
2023-02-12T01:10:00.715Z,13.93
2023-02-12T01:15:04.819Z,12.38
2023-02-12T01:20:11.085Z,11.73
2023-02-12T01:25:12.806Z,12.93
2023-02-12T01:30:15.274Z,11.60
2023-02-12T01:35:16.956Z,12.85
2023-02-12T01:40:19.087Z,13.52
2023-02-12T01:45:23.606Z,14.77
2023-02-12T01:50:25.366Z,12.30
2023-02-12T01:55:27.788Z,13.02
2023-02-12T02:00:29.476Z,11.10
2023-02-12T02:05:43.781Z,11.85
2023-02-12T02:10:45.368Z,13.40
2023-02-12T02:15:55.224Z,12.63
2023-02-12T02:21:27.060Z,13.90
2023-02-12T02:26:50.614Z,13.05
2023-02-12T02:31:59.046Z,12.25
2023-02-12T02:37:28.160Z,12.75
2023-02-12T02:42:37.464Z,11.87
2023-02-12T02:47:43.505Z,13.70
2023-02-12T02:53:16.734Z,12.05
2023-02-12T02:58:26.612Z,11.73
2023-02-12T03:04:07.776Z,12.45
2023-02-12T03:09:16.967Z,12.15
2023-02-12T03:14:37.810Z,11.45
2023-02-12T03:19:46.917Z,11.25
2023-02-12T03:24:53.968Z,12.30
2023-02-12T03:29:56.190Z,11.27
2023-02-12T03:35:15.159Z,11.20
2023-02-12T03:40:41.524Z,10.83
2023-02-12T03:46:02.028Z,11.13
2023-02-12T03:51:11.447Z,11.23
2023-02-12T03:56:53.628Z,12.20
2023-02-12T04:01:58.626Z,11.93
2023-02-12T04:07:01.009Z,11.32
2023-02-12T04:12:07.783Z,11.02
2023-02-12T04:17:20.011Z,12.25
2023-02-12T04:22:41.691Z,12.60
2023-02-12T04:28:14.320Z,12.23
2023-02-12T04:33:22.884Z,11.93
2023-02-12T04:38:34.881Z,12.05
2023-02-12T04:43:37.656Z,11.65
2023-02-12T04:48:52.338Z,11.48
2023-02-12T04:53:53.926Z,12.32
2023-02-12T04:58:58.007Z,14.30
2023-02-12T05:03:59.588Z,17.48
2023-02-12T05:09:01.292Z,19.67
2023-02-12T05:14:02.940Z,19.52
2023-02-12T05:19:04.662Z,19.45
2023-02-12T05:24:06.402Z,20.58
2023-02-12T05:29:07.987Z,19.27
2023-02-12T05:34:12.066Z,19.80
2023-02-12T05:39:13.730Z,16.65
2023-02-12T05:44:15.408Z,14.18
2023-02-12T05:49:17.079Z,15.85
2023-02-12T05:54:18.686Z,15.70
2023-02-12T05:59:22.806Z,16.13
2023-02-12T06:04:28.044Z,17.17
2023-02-12T06:09:29.663Z,18.13
2023-02-12T06:14:32.079Z,17.90
2023-02-12T06:19:33.829Z,17.98
2023-02-12T06:24:37.175Z,17.33
2023-02-12T06:29:38.745Z,17.23
2023-02-12T06:34:41.070Z,15.75
2023-02-12T06:39:42.649Z,15.65
2023-02-12T06:44:44.308Z,14.65
2023-02-12T06:49:45.863Z,15.32
2023-02-12T06:54:47.435Z,14.68
2023-02-12T06:59:49.886Z,14.52
2023-02-12T07:04:51.482Z,15.38
2023-02-12T07:09:53.062Z,15.52
2023-02-12T07:14:54.659Z,15.55
2023-02-12T07:19:56.400Z,17.25
2023-02-12T07:24:57.966Z,18.45
2023-02-12T07:29:59.595Z,19.58
2023-02-12T07:35:01.281Z,20.33
2023-02-12T07:40:03.393Z,19.50
2023-02-12T07:45:05.498Z,20.05
2023-02-12T07:50:07.448Z,17.98
2023-02-12T07:55:09.339Z,17.85
2023-02-12T08:00:11.420Z,18.05
2023-02-12T08:05:15.872Z,17.58
2023-02-12T08:10:22.267Z,17.77
2023-02-12T08:15:24.009Z,16.80
2023-02-12T08:20:25.750Z,16.65
2023-02-12T08:25:27.364Z,17.98
2023-02-12T08:30:29.013Z,15.98
2023-02-12T08:35:30.679Z,16.23
2023-02-12T08:40:33.259Z,17.10
2023-02-12T08:45:35.040Z,18.17
2023-02-12T08:50:36.850Z,18.60
2023-02-12T08:55:38.707Z,19.10
2023-02-12T09:00:40.551Z,19.83
2023-02-12T09:05:42.486Z,19.70
2023-02-12T09:10:45.264Z,19.60
2023-02-12T09:15:46.933Z,19.08
2023-02-12T09:20:48.656Z,20.05
2023-02-12T09:25:50.225Z,18.40
2023-02-12T09:30:51.975Z,15.18
2023-02-12T09:35:54.193Z,16.80
2023-02-12T09:41:20.657Z,14.70
2023-02-12T09:46:40.986Z,15.93
2023-02-12T09:51:51.272Z,18.35
2023-02-12T09:56:57.155Z,14.27
2023-02-12T10:01:59.651Z,11.77
2023-02-12T10:07:40.440Z,6.45
2023-02-12T10:12:55.771Z,5.20
2023-02-12T10:18:06.392Z,6.40
2023-02-12T10:23:33.125Z,6.28
2023-02-12T10:28:39.497Z,7.00
2023-02-12T10:33:49.322Z,7.18
2023-02-12T10:38:58.338Z,7.65
2023-02-12T10:43:59.964Z,8.60
2023-02-12T10:49:02.344Z,10.10
2023-02-12T10:54:43.982Z,11.55
2023-02-12T10:59:47.692Z,10.23
2023-02-12T11:04:50.017Z,13.88
2023-02-12T11:09:53.907Z,13.27
2023-02-12T11:14:58.471Z,12.75
2023-02-12T11:20:05.357Z,13.52
2023-02-12T11:25:16.895Z,12.93
2023-02-12T11:30:21.297Z,11.95
2023-02-12T11:35:25.932Z,11.52
2023-02-12T11:40:34.084Z,11.80
2023-02-12T11:45:45.083Z,11.00
2023-02-12T11:50:49.078Z,11.80
2023-02-12T11:55:57.316Z,11.10
2023-02-12T12:01:12.522Z,11.80
2023-02-12T12:06:21.993Z,11.15
2023-02-12T12:11:38.459Z,10.63
2023-02-12T12:17:10.452Z,9.18
2023-02-12T12:22:21.592Z,8.63
2023-02-12T12:27:46.179Z,7.03
2023-02-12T12:32:52.708Z,11.68
2023-02-12T12:37:59.883Z,12.52
2023-02-12T12:43:09.596Z,13.63
2023-02-12T12:48:32.138Z,13.65
2023-02-12T12:53:51.545Z,11.45
2023-02-12T12:59:14.290Z,13.20
2023-02-12T13:04:56.138Z,12.07
2023-02-12T13:10:22.127Z,12.48
2023-02-12T13:15:45.294Z,12.10
2023-02-12T13:21:01.623Z,14.63
2023-02-12T13:26:24.600Z,11.75
2023-02-12T13:31:33.662Z,10.98
2023-02-12T13:36:37.756Z,11.52
2023-02-12T13:41:43.926Z,10.85
2023-02-12T13:47:14.998Z,11.13
2023-02-12T13:52:28.591Z,11.30
2023-02-12T13:57:30.176Z,11.75
2023-02-12T14:02:34.800Z,11.88
2023-02-12T14:07:45.692Z,11.68
2023-02-12T14:12:47.509Z,11.60
2023-02-12T14:18:03.804Z,10.18
2023-02-12T14:23:27.569Z,11.02
2023-02-12T14:28:35.078Z,11.23
2023-02-12T14:33:36.743Z,10.90
2023-02-12T14:38:47.455Z,10.23
2023-02-12T14:44:01.393Z,9.50
2023-02-12T14:49:07.709Z,8.02
2023-02-12T14:54:26.615Z,7.75
2023-02-12T14:59:34.685Z,5.97
2023-02-12T15:04:38.512Z,5.80
2023-02-12T15:09:50.403Z,4.90
2023-02-12T15:15:04.815Z,5.20
2023-02-12T15:20:41.339Z,5.53
2023-02-12T15:25:43.529Z,5.05
2023-02-12T15:30:46.346Z,4.97
2023-02-12T15:35:48.851Z,4.70
2023-02-12T15:40:59.001Z,4.47
2023-02-12T15:46:03.114Z,4.50
2023-02-12T15:51:38.640Z,4.10
2023-02-12T15:56:41.818Z,4.68
2023-02-12T16:01:56.970Z,4.28
2023-02-12T16:07:00.377Z,4.50
2023-02-12T16:12:05.345Z,4.60
2023-02-12T16:17:25.565Z,4.28
2023-02-12T16:22:36.281Z,4.43
2023-02-12T16:27:38.026Z,4.65
2023-02-12T16:32:42.380Z,4.85
2023-02-12T16:37:49.631Z,4.47
2023-02-12T16:42:51.423Z,5.05
2023-02-12T16:48:04.205Z,4.93
2023-02-12T16:53:25.678Z,4.57
2023-02-12T16:58:28.694Z,4.80
2023-02-12T17:03:30.850Z,5.05
2023-02-12T17:08:32.672Z,4.60
2023-02-12T17:13:34.332Z,4.90
2023-02-12T17:18:36.145Z,4.95
2023-02-12T17:23:40.435Z,4.85
2023-02-12T17:28:42.335Z,4.45
2023-02-12T17:33:44.620Z,4.68
2023-02-12T17:38:46.576Z,5.38
2023-02-12T17:43:48.362Z,5.40
2023-02-12T17:48:50.251Z,5.55
2023-02-12T17:53:51.981Z,4.75
2023-02-12T17:58:53.772Z,5.72
2023-02-12T18:03:58.905Z,5.57
2023-02-12T18:09:01.987Z,6.20
2023-02-12T18:14:03.839Z,5.28
2023-02-12T18:19:06.272Z,5.38
2023-02-12T18:24:08.538Z,5.97
2023-02-12T18:29:10.272Z,6.03
2023-02-12T18:34:12.808Z,6.10
2023-02-12T18:39:14.409Z,6.60
2023-02-12T18:44:16.461Z,6.50
2023-02-12T18:49:18.283Z,7.35
2023-02-12T18:54:20.562Z,6.95
2023-02-12T18:59:23.263Z,7.05
2023-02-12T19:04:27.995Z,7.95
2023-02-12T19:09:29.745Z,7.93
2023-02-12T19:14:31.557Z,7.53
2023-02-12T19:19:33.306Z,7.22
2023-02-12T19:24:45.523Z,7.20
2023-02-12T19:29:47.733Z,7.55
2023-02-12T19:34:49.311Z,7.28
2023-02-12T19:39:51.162Z,7.40
2023-02-12T19:44:52.955Z,7.18
2023-02-12T19:49:55.078Z,7.93
2023-02-12T19:54:57.002Z,8.68
2023-02-12T19:59:58.633Z,9.15
2023-02-12T20:05:00.459Z,8.93
2023-02-12T20:10:02.052Z,10.93
2023-02-12T20:15:04.424Z,9.48
2023-02-12T20:20:07.365Z,9.50
2023-02-12T20:25:08.961Z,9.80
2023-02-12T20:30:10.985Z,8.52
2023-02-12T20:35:13.907Z,7.72
2023-02-12T20:40:15.723Z,7.38
2023-02-12T20:45:17.444Z,7.53
2023-02-12T20:50:19.304Z,7.78
2023-02-12T20:55:21.086Z,7.45
2023-02-12T21:00:23.047Z,7.38
2023-02-12T21:05:24.802Z,6.80
2023-02-12T21:10:28.667Z,8.27
2023-02-12T21:15:31.394Z,7.20
2023-02-12T21:20:33.097Z,7.47
2023-02-12T21:25:34.693Z,8.85
2023-02-12T21:30:38.566Z,7.30
2023-02-12T21:35:40.713Z,7.15
2023-02-12T21:40:42.314Z,8.40
2023-02-12T21:45:51.853Z,8.18
2023-02-12T21:50:53.589Z,8.43
2023-02-12T21:55:55.592Z,8.23
2023-02-12T22:00:58.075Z,8.40
2023-02-12T22:06:02.196Z,7.82
2023-02-12T22:11:09.541Z,8.32
2023-02-12T22:16:14.336Z,7.93
2023-02-12T22:21:18.016Z,8.30
2023-02-12T22:26:24.030Z,8.80
2023-02-12T22:31:29.519Z,8.20
2023-02-12T22:36:32.008Z,9.80
2023-02-12T22:41:34.112Z,9.30
2023-02-12T22:46:36.184Z,8.80
2023-02-12T22:51:39.528Z,8.30
2023-02-12T22:56:42.039Z,8.57
2023-02-12T23:01:43.744Z,8.90
2023-02-12T23:06:45.961Z,8.18
2023-02-12T23:11:47.933Z,9.50
2023-02-12T23:16:49.499Z,9.95
2023-02-12T23:21:51.344Z,8.77
2023-02-12T23:26:53.725Z,9.95
2023-02-12T23:31:55.329Z,8.65
2023-02-12T23:36:57.260Z,9.05
2023-02-12T23:41:58.859Z,9.70
2023-02-12T23:47:02.308Z,9.32
2023-02-12T23:52:04.107Z,9.30
2023-02-12T23:57:05.737Z,8.80
